createdAt,value
2023-03-26T00:01:35.797Z,7.40
2023-03-26T00:04:04.798Z,6.40
2023-03-26T00:06:34.722Z,5.18
2023-03-26T00:09:01.770Z,6.70
2023-03-26T00:11:29.689Z,5.65
2023-03-26T00:13:57.440Z,4.35
2023-03-26T00:16:27.417Z,5.32
2023-03-26T00:18:54.457Z,5.97
2023-03-26T00:21:26.699Z,8.23
2023-03-26T00:24:04.092Z,5.25
2023-03-26T00:26:33.760Z,6.78
2023-03-26T00:29:04.174Z,6.25
2023-03-26T00:31:34.579Z,9.68
2023-03-26T00:34:04.083Z,6.78
2023-03-26T00:36:34.208Z,7.70
2023-03-26T00:39:04.328Z,7.20
2023-03-26T00:41:34.171Z,6.22
2023-03-26T00:44:01.245Z,8.20
2023-03-26T00:46:31.218Z,6.88
2023-03-26T00:48:59.221Z,7.25
2023-03-26T00:51:28.055Z,9.77
2023-03-26T00:53:55.455Z,7.32
2023-03-26T00:56:22.860Z,9.32
2023-03-26T00:58:52.246Z,7.47
2023-03-26T01:01:23.554Z,6.75
2023-03-26T01:04:05.301Z,10.10
2023-03-26T01:06:38.907Z,5.40
2023-03-26T01:09:19.398Z,6.97
2023-03-26T01:11:48.716Z,6.63
2023-03-26T01:14:20.511Z,8.68
2023-03-26T01:16:54.468Z,9.35
2023-03-26T01:19:30.761Z,8.80
2023-03-26T01:21:58.854Z,8.45
2023-03-26T01:24:28.373Z,9.50
2023-03-26T01:27:09.855Z,6.78
2023-03-26T01:30:12.365Z,8.15
2023-03-26T01:32:54.014Z,8.05
2023-03-26T01:35:26.819Z,6.32
2023-03-26T01:38:05.499Z,8.38
2023-03-26T01:40:36.186Z,7.50
2023-03-26T01:43:12.841Z,6.25
2023-03-26T01:45:42.822Z,6.90
2023-03-26T01:48:10.186Z,5.13
2023-03-26T01:50:37.194Z,8.10
2023-03-26T01:53:05.358Z,4.57
2023-03-26T01:56:12.897Z,6.28
2023-03-26T01:58:52.177Z,5.20
2023-03-26T02:01:35.416Z,5.38
2023-03-26T02:04:24.926Z,4.75
2023-03-26T02:07:07.154Z,5.53
2023-03-26T02:09:43.488Z,6.05
2023-03-26T02:12:11.293Z,4.35
2023-03-26T02:14:38.841Z,4.07
2023-03-26T02:17:05.905Z,7.85
2023-03-26T02:19:33.294Z,4.28
2023-03-26T02:22:00.315Z,7.20
2023-03-26T02:24:29.857Z,7.28
2023-03-26T02:26:56.874Z,5.85
2023-03-26T02:29:26.413Z,6.32
2023-03-26T02:31:53.549Z,6.22
2023-03-26T02:34:21.022Z,6.07
2023-03-26T02:36:48.149Z,8.57
2023-03-26T02:39:17.959Z,6.47
2023-03-26T02:41:44.948Z,6.53
2023-03-26T02:44:14.853Z,5.97
2023-03-26T02:46:46.343Z,5.18
2023-03-26T02:49:13.664Z,6.43
2023-03-26T02:51:40.688Z,7.68
2023-03-26T02:54:08.119Z,8.55
2023-03-26T02:56:35.363Z,5.15
2023-03-26T02:59:02.813Z,5.07
2023-03-26T03:01:32.414Z,6.13
2023-03-26T03:03:59.822Z,5.15
2023-03-26T03:06:26.836Z,5.88
2023-03-26T03:08:58.836Z,5.20
2023-03-26T03:11:27.056Z,5.47
2023-03-26T03:13:56.667Z,5.97
2023-03-26T03:16:24.053Z,3.50
2023-03-26T03:18:51.532Z,3.65
2023-03-26T03:21:18.551Z,5.65
2023-03-26T03:23:45.906Z,7.05
2023-03-26T03:26:15.803Z,6.03
2023-03-26T03:28:43.658Z,6.38
2023-03-26T03:31:11.190Z,5.45
2023-03-26T03:33:38.645Z,3.88
2023-03-26T03:36:06.060Z,4.90
2023-03-26T03:38:33.392Z,5.20
2023-03-26T03:41:02.757Z,4.10
2023-03-26T03:43:30.131Z,5.72
2023-03-26T03:46:00.117Z,5.13
2023-03-26T03:48:28.112Z,6.50
2023-03-26T03:50:58.024Z,7.28
2023-03-26T03:53:26.077Z,4.32
2023-03-26T03:55:57.156Z,3.90
2023-03-26T03:58:26.615Z,5.03
2023-03-26T04:00:55.351Z,4.75
2023-03-26T04:03:33.696Z,5.30
2023-03-26T04:06:01.720Z,4.82
2023-03-26T04:08:29.040Z,6.15
2023-03-26T04:10:56.033Z,5.90
2023-03-26T04:13:25.617Z,4.53
2023-03-26T04:15:52.838Z,5.70
2023-03-26T04:18:20.404Z,4.28
2023-03-26T04:20:49.931Z,4.43
2023-03-26T04:23:18.664Z,3.80
2023-03-26T04:25:54.374Z,4.43
2023-03-26T04:28:25.002Z,5.07
2023-03-26T04:30:53.339Z,4.57
2023-03-26T04:33:21.185Z,4.15
2023-03-26T04:35:48.778Z,8.20
2023-03-26T04:38:16.194Z,2.17
2023-03-26T04:40:48.548Z,3.17
2023-03-26T04:43:16.970Z,5.00
2023-03-26T04:45:46.779Z,3.10
2023-03-26T04:48:14.172Z,4.70
2023-03-26T04:50:46.463Z,5.47
2023-03-26T04:53:17.624Z,3.92
2023-03-26T04:55:47.443Z,3.95
2023-03-26T04:58:15.279Z,4.30
2023-03-26T05:00:44.549Z,2.65
2023-03-26T05:03:12.450Z,3.35
2023-03-26T05:05:40.264Z,2.13
2023-03-26T05:08:10.250Z,1.23
2023-03-26T05:10:37.282Z,2.58
2023-03-26T05:13:04.599Z,3.10
2023-03-26T05:15:34.128Z,2.75
2023-03-26T05:18:01.527Z,5.03
2023-03-26T05:20:30.413Z,2.50
2023-03-26T05:22:57.757Z,4.65
2023-03-26T05:25:27.084Z,3.15
2023-03-26T05:27:54.472Z,2.92
2023-03-26T05:30:22.346Z,2.20
2023-03-26T05:32:52.320Z,2.42
2023-03-26T05:35:23.904Z,2.35
2023-03-26T05:37:51.315Z,2.45
2023-03-26T05:40:18.450Z,3.38
2023-03-26T05:42:45.977Z,3.65
2023-03-26T05:45:18.213Z,3.03
2023-03-26T05:47:45.582Z,2.35
2023-03-26T05:50:12.625Z,2.53
2023-03-26T05:52:42.533Z,2.67
2023-03-26T05:55:12.330Z,3.50
2023-03-26T05:57:42.253Z,3.45
2023-03-26T06:00:09.749Z,3.47
2023-03-26T06:02:37.095Z,4.47
2023-03-26T06:05:04.765Z,3.78
2023-03-26T06:07:34.641Z,4.20
2023-03-26T06:10:01.785Z,2.83
2023-03-26T06:12:29.168Z,4.22
2023-03-26T06:14:58.725Z,2.30
2023-03-26T06:17:28.633Z,3.72
2023-03-26T06:19:58.123Z,3.85
2023-03-26T06:22:25.443Z,5.82
2023-03-26T06:24:52.481Z,2.88
2023-03-26T06:27:21.996Z,2.90
2023-03-26T06:29:49.117Z,4.22
2023-03-26T06:32:20.049Z,3.58
2023-03-26T06:34:47.877Z,3.42
2023-03-26T06:37:16.278Z,4.35
2023-03-26T06:39:45.543Z,4.32
2023-03-26T06:42:17.371Z,2.78
2023-03-26T06:44:44.394Z,3.40
2023-03-26T06:47:11.785Z,1.73
2023-03-26T06:49:38.852Z,4.03
2023-03-26T06:52:06.247Z,7.63
2023-03-26T06:54:33.289Z,6.35
2023-03-26T06:57:00.759Z,4.30
2023-03-26T06:59:27.975Z,3.72
2023-03-26T07:01:55.482Z,11.75
2023-03-26T07:04:25.025Z,4.10
2023-03-26T07:06:54.985Z,2.55
2023-03-26T07:09:22.120Z,5.88
2023-03-26T07:11:49.448Z,3.88
2023-03-26T07:14:16.523Z,3.42
2023-03-26T07:16:43.957Z,2.63
2023-03-26T07:19:13.222Z,12.38
2023-03-26T07:21:43.332Z,3.15
2023-03-26T07:24:11.432Z,3.92
2023-03-26T07:27:04.741Z,9.27
2023-03-26T07:30:05.428Z,3.92
2023-03-26T07:32:38.661Z,3.38
2023-03-26T07:35:08.616Z,6.57
2023-03-26T07:38:13.424Z,4.60
2023-03-26T07:43:51.277Z,3.90
2023-03-26T07:46:30.310Z,3.22
2023-03-26T07:48:58.598Z,2.45
2023-03-26T07:51:28.733Z,3.83
2023-03-26T07:53:56.531Z,3.00
2023-03-26T07:56:54.959Z,3.05
2023-03-26T07:59:34.306Z,2.50
2023-03-26T08:02:24.305Z,3.60
2023-03-26T08:05:15.909Z,4.90
2023-03-26T08:07:52.815Z,2.35
2023-03-26T08:10:42.844Z,1.85
2023-03-26T08:13:29.293Z,3.38
2023-03-26T08:16:11.962Z,2.20
2023-03-26T08:19:20.096Z,5.38
2023-03-26T08:22:13.081Z,3.72
2023-03-26T08:25:03.220Z,3.40
2023-03-26T08:27:37.074Z,5.68
2023-03-26T08:30:23.037Z,1.83
2023-03-26T08:32:55.141Z,3.42
2023-03-26T08:35:23.568Z,4.38
2023-03-26T08:37:53.785Z,2.63
2023-03-26T08:40:46.607Z,2.22
2023-03-26T08:43:36.980Z,1.85
2023-03-26T08:46:04.011Z,1.33
2023-03-26T08:48:43.546Z,2.15
2023-03-26T08:51:45.658Z,3.88
2023-03-26T08:54:46.782Z,2.92
2023-03-26T08:57:32.663Z,11.18
2023-03-26T09:00:24.261Z,2.55
2023-03-26T09:03:00.232Z,2.17
2023-03-26T09:05:36.180Z,3.22
2023-03-26T09:08:23.822Z,1.25
2023-03-26T09:10:51.110Z,3.17
2023-03-26T09:13:42.635Z,10.10
2023-03-26T09:16:18.860Z,4.28
2023-03-26T09:18:51.703Z,1.77
2023-03-26T09:21:37.390Z,3.35
2023-03-26T09:24:38.711Z,3.92
2023-03-26T09:27:38.501Z,3.53
2023-03-26T09:30:43.293Z,5.15
2023-03-26T09:33:50.075Z,4.03
2023-03-26T09:36:41.812Z,3.90
2023-03-26T09:39:47.478Z,2.67
2023-03-26T09:42:26.862Z,5.22
2023-03-26T09:45:24.584Z,3.65
2023-03-26T09:48:03.662Z,3.35
2023-03-26T09:51:26.135Z,1.95
2023-03-26T09:54:05.946Z,2.28
2023-03-26T09:56:42.215Z,2.67
2023-03-26T09:59:18.306Z,4.13
2023-03-26T10:02:02.595Z,2.60
2023-03-26T10:04:48.314Z,2.03
2023-03-26T10:07:21.184Z,2.63
2023-03-26T10:10:17.626Z,2.22
2023-03-26T10:13:02.104Z,13.80
2023-03-26T10:15:47.045Z,6.05
2023-03-26T10:18:46.508Z,8.27
2023-03-26T10:21:32.362Z,4.90
2023-03-26T10:24:25.298Z,3.08
2023-03-26T10:27:24.776Z,3.38
2023-03-26T10:30:21.266Z,1.80
2023-03-26T10:33:03.422Z,3.83
2023-03-26T10:35:55.348Z,3.05
2023-03-26T10:38:43.607Z,4.00
2023-03-26T10:41:30.476Z,2.25
2023-03-26T10:44:36.315Z,2.88
2023-03-26T10:47:22.605Z,2.03
2023-03-26T10:50:23.158Z,3.25
2023-03-26T10:52:57.409Z,1.77
2023-03-26T10:58:09.734Z,8.32
2023-03-26T11:01:05.535Z,5.25
2023-03-26T11:03:47.298Z,4.90
2023-03-26T11:06:17.431Z,5.97
2023-03-26T11:09:16.957Z,4.28
2023-03-26T11:11:58.193Z,5.05
2023-03-26T11:14:35.353Z,4.68
2023-03-26T11:17:40.394Z,5.45
2023-03-26T11:20:08.643Z,6.25
2023-03-26T11:22:47.950Z,2.60
2023-03-26T11:25:42.229Z,2.08
2023-03-26T11:31:27.871Z,6.45
2023-03-26T11:33:58.604Z,9.23
2023-03-26T11:36:35.658Z,19.27
2023-03-26T11:39:10.734Z,7.40
2023-03-26T11:41:38.239Z,5.05
2023-03-26T11:44:44.137Z,3.78
2023-03-26T11:47:13.602Z,5.35
2023-03-26T11:49:45.545Z,5.35
2023-03-26T11:52:12.995Z,4.78
2023-03-26T11:54:42.569Z,3.28
2023-03-26T11:57:22.476Z,13.98
2023-03-26T12:00:09.296Z,6.05
2023-03-26T12:02:41.500Z,4.32
2023-03-26T12:05:17.343Z,4.88
2023-03-26T12:08:01.033Z,5.50
2023-03-26T12:10:38.851Z,2.60
2023-03-26T12:13:21.783Z,3.60
2023-03-26T12:15:49.908Z,4.80
2023-03-26T12:18:25.889Z,4.38
2023-03-26T12:21:14.977Z,3.28
2023-03-26T12:23:45.307Z,4.13
2023-03-26T12:26:35.570Z,2.30
2023-03-26T12:29:10.383Z,2.88
2023-03-26T12:32:03.732Z,3.42
2023-03-26T12:34:38.227Z,3.83
2023-03-26T12:37:27.177Z,4.88
2023-03-26T12:40:28.088Z,4.68
2023-03-26T12:44:51.243Z,17.10
2023-03-26T12:47:55.325Z,20.20
2023-03-26T12:48:40.961Z,4.22
2023-03-26T12:51:19.936Z,4.88
2023-03-26T12:54:22.498Z,7.55
2023-03-26T13:00:13.371Z,3.63
2023-03-26T13:02:24.140Z,3.65
2023-03-26T13:02:57.351Z,3.10
2023-03-26T13:08:15.908Z,6.15
2023-03-26T13:11:28.540Z,7.30
2023-03-26T13:14:01.899Z,6.10
2023-03-26T13:16:46.412Z,3.75
2023-03-26T13:19:20.064Z,3.72
2023-03-26T13:22:00.043Z,4.97
2023-03-26T13:25:12.295Z,3.25
2023-03-26T13:28:03.791Z,2.85
2023-03-26T13:30:41.348Z,4.28
2023-03-26T13:33:20.528Z,4.15
2023-03-26T13:36:19.324Z,5.05
2023-03-26T13:39:17.938Z,3.08
2023-03-26T13:41:45.261Z,8.10
2023-03-26T13:44:21.284Z,5.32
2023-03-26T13:46:54.479Z,5.28
2023-03-26T13:49:32.854Z,5.30
2023-03-26T13:52:07.472Z,4.72
2023-03-26T13:54:51.146Z,3.88
2023-03-26T13:57:27.341Z,5.18
2023-03-26T13:59:56.437Z,2.58
2023-03-26T14:02:39.068Z,2.83
2023-03-26T14:05:09.408Z,4.22
2023-03-26T14:07:52.850Z,5.78
2023-03-26T14:10:27.193Z,5.15
2023-03-26T14:13:04.982Z,30.35
2023-03-26T14:15:52.278Z,12.30
2023-03-26T14:18:44.117Z,6.57
2023-03-26T14:21:55.812Z,5.18
2023-03-26T14:24:29.112Z,5.72
2023-03-26T14:27:01.955Z,7.35
2023-03-26T14:29:56.924Z,7.90
2023-03-26T14:32:49.235Z,7.47
2023-03-26T14:35:35.627Z,5.25
2023-03-26T14:38:39.888Z,11.00
2023-03-26T14:41:10.302Z,6.28
2023-03-26T14:43:37.320Z,8.82
2023-03-26T14:46:38.291Z,4.53
2023-03-26T14:49:20.588Z,7.97
2023-03-26T14:51:56.900Z,6.65
2023-03-26T14:54:27.958Z,8.20
2023-03-26T14:57:33.102Z,10.77
2023-03-26T15:00:22.692Z,10.57
2023-03-26T15:03:22.879Z,4.55
2023-03-26T15:06:14.401Z,5.20
2023-03-26T15:09:06.777Z,4.65
2023-03-26T15:12:12.734Z,7.63
2023-03-26T15:15:08.843Z,6.85
2023-03-26T15:17:40.629Z,16.85
2023-03-26T15:20:26.618Z,5.35
2023-03-26T15:23:50.208Z,11.90
2023-03-26T15:26:36.064Z,6.67
2023-03-26T15:29:54.602Z,7.68
2023-03-26T15:32:51.040Z,6.53
2023-03-26T15:35:57.030Z,6.45
2023-03-26T15:38:46.279Z,6.30
2023-03-26T15:41:38.637Z,5.22
2023-03-26T15:44:53.545Z,8.43
2023-03-26T15:47:39.375Z,8.90
2023-03-26T15:50:45.478Z,7.18
2023-03-26T15:53:36.447Z,10.35
2023-03-26T15:56:30.480Z,7.03
2023-03-26T15:59:08.170Z,8.50
2023-03-26T16:01:57.271Z,6.38
2023-03-26T16:04:50.563Z,10.10
2023-03-26T16:07:53.014Z,13.35
2023-03-26T16:10:20.015Z,7.03
2023-03-26T16:13:19.609Z,9.05
2023-03-26T16:15:54.744Z,8.45
2023-03-26T16:18:35.156Z,7.60
2023-03-26T16:21:31.292Z,8.18
2023-03-26T16:24:02.938Z,7.93
2023-03-26T16:26:40.511Z,6.97
2023-03-26T16:29:28.059Z,10.65
2023-03-26T16:32:16.983Z,10.02
2023-03-26T16:35:01.635Z,12.00
2023-03-26T16:37:31.937Z,8.13
2023-03-26T16:40:17.382Z,8.85
2023-03-26T16:43:02.166Z,9.95
2023-03-26T16:45:38.340Z,9.30
2023-03-26T16:48:05.493Z,9.38
2023-03-26T16:51:03.225Z,11.75
2023-03-26T16:53:58.509Z,11.02
2023-03-26T16:56:47.342Z,10.52
2023-03-26T17:00:05.682Z,10.63
2023-03-26T17:02:47.204Z,8.35
2023-03-26T17:05:20.369Z,9.60
2023-03-26T17:08:12.346Z,12.00
2023-03-26T17:10:44.940Z,11.38
2023-03-26T17:13:17.906Z,11.93
2023-03-26T17:16:11.017Z,15.07
2023-03-26T17:18:55.931Z,12.68
2023-03-26T17:21:45.824Z,15.50
2023-03-26T17:24:27.513Z,15.38
2023-03-26T17:27:25.619Z,15.02
2023-03-26T17:30:20.699Z,12.98
2023-03-26T17:33:00.000Z,13.13
2023-03-26T17:35:44.679Z,14.68
2023-03-26T17:38:17.730Z,16.30
2023-03-26T17:40:56.667Z,17.08
2023-03-26T17:43:35.586Z,12.27
2023-03-26T17:46:36.330Z,10.05
2023-03-26T17:49:12.346Z,9.10
2023-03-26T17:51:46.887Z,6.38
2023-03-26T17:54:47.330Z,7.13
2023-03-26T17:57:23.016Z,5.85
2023-03-26T17:59:53.386Z,6.18
2023-03-26T18:02:24.078Z,8.02
2023-03-26T18:04:55.131Z,7.55
2023-03-26T18:08:07.678Z,18.17
2023-03-26T18:10:44.013Z,16.92
2023-03-26T18:13:20.001Z,17.20
2023-03-26T18:15:57.767Z,14.18
2023-03-26T18:18:43.282Z,16.35
2023-03-26T18:21:16.132Z,11.55
2023-03-26T18:23:49.805Z,15.98
2023-03-26T18:26:43.974Z,15.80
2023-03-26T18:29:20.543Z,13.20
2023-03-26T18:32:01.709Z,14.95
2023-03-26T18:34:31.767Z,17.38
2023-03-26T18:37:17.721Z,13.73
2023-03-26T18:40:17.593Z,14.10
2023-03-26T18:42:50.922Z,16.30
2023-03-26T18:45:29.100Z,18.98
2023-03-26T18:48:00.712Z,17.02
2023-03-26T18:50:35.609Z,14.13
2023-03-26T18:53:05.347Z,17.10
2023-03-26T18:55:36.381Z,14.05
2023-03-26T18:58:22.120Z,14.85
2023-03-26T19:00:51.322Z,18.25
2023-03-26T19:03:23.677Z,15.70
2023-03-26T19:05:56.563Z,14.25
2023-03-26T19:08:25.871Z,18.40
2023-03-26T19:10:56.062Z,18.80
2023-03-26T19:13:23.883Z,17.05
2023-03-26T19:15:53.598Z,20.77
2023-03-26T19:18:25.090Z,19.83
2023-03-26T19:21:01.275Z,20.73
2023-03-26T19:23:34.175Z,21.13
2023-03-26T19:26:03.911Z,23.83
2023-03-26T19:28:34.762Z,20.35
2023-03-26T19:31:11.076Z,29.48
2023-03-26T19:33:41.638Z,24.92
2023-03-26T19:36:17.275Z,25.30
2023-03-26T19:38:59.374Z,24.92
2023-03-26T19:41:41.421Z,21.13
2023-03-26T19:44:19.914Z,24.38
2023-03-26T19:46:53.390Z,19.27
2023-03-26T19:49:30.101Z,21.40
2023-03-26T19:52:20.465Z,21.83
2023-03-26T19:55:06.810Z,18.42
2023-03-26T19:57:34.204Z,17.45
2023-03-26T20:00:01.257Z,16.35
2023-03-26T20:02:28.964Z,17.58
2023-03-26T20:04:58.735Z,19.20
2023-03-26T20:07:35.415Z,17.85
2023-03-26T20:10:06.669Z,16.08
2023-03-26T20:12:36.598Z,17.30
2023-03-26T20:15:24.109Z,19.05
2023-03-26T20:17:54.451Z,15.20
2023-03-26T20:20:27.829Z,17.40
2023-03-26T20:22:55.322Z,14.57
2023-03-26T20:25:34.982Z,17.10
2023-03-26T20:28:02.420Z,16.90
2023-03-26T20:33:12.772Z,13.85
2023-03-26T20:35:41.418Z,15.23
2023-03-26T20:38:09.007Z,11.98
2023-03-26T20:40:36.081Z,12.65
2023-03-26T20:43:03.436Z,9.98
2023-03-26T20:45:32.694Z,13.68
2023-03-26T20:48:02.364Z,10.77
2023-03-26T20:50:30.034Z,11.40
2023-03-26T20:53:03.587Z,13.45
2023-03-26T20:55:30.647Z,52.72
2023-03-26T20:57:57.979Z,24.08
2023-03-26T21:00:25.048Z,14.07
2023-03-26T21:02:54.849Z,14.63
2023-03-26T21:05:26.772Z,14.20
2023-03-26T21:07:55.340Z,13.90
2023-03-26T21:10:23.414Z,15.75
2023-03-26T21:12:57.891Z,13.52
2023-03-26T21:15:27.997Z,15.35
2023-03-26T21:17:55.943Z,17.42
2023-03-26T21:20:26.261Z,15.13
2023-03-26T21:23:14.180Z,16.58
2023-03-26T21:25:43.995Z,15.50
2023-03-26T21:28:14.295Z,11.90
2023-03-26T21:30:41.666Z,10.93
2023-03-26T21:33:11.551Z,11.68
2023-03-26T21:35:41.247Z,10.48
2023-03-26T21:38:09.698Z,12.05
2023-03-26T21:40:39.003Z,9.75
2023-03-26T21:43:11.655Z,12.05
2023-03-26T21:45:39.438Z,10.88
2023-03-26T21:48:10.055Z,40.65
2023-03-26T21:50:37.427Z,38.28
2023-03-26T21:53:05.020Z,14.25
2023-03-26T21:56:11.636Z,13.73
2023-03-26T21:58:52.716Z,11.00
2023-03-26T22:01:24.069Z,10.98
2023-03-26T22:04:10.423Z,10.85
2023-03-26T22:06:54.231Z,9.10
2023-03-26T22:09:30.101Z,35.95
2023-03-26T22:12:04.423Z,31.20
2023-03-26T22:14:33.999Z,15.85
2023-03-26T22:17:01.115Z,10.60
2023-03-26T22:19:30.370Z,12.98
2023-03-26T22:21:57.709Z,12.23
2023-03-26T22:24:25.045Z,10.90
2023-03-26T22:26:54.344Z,12.32
2023-03-26T22:29:21.702Z,8.95
2023-03-26T22:31:48.883Z,10.40
2023-03-26T22:34:16.233Z,12.20
2023-03-26T22:36:43.236Z,9.90
2023-03-26T22:39:10.608Z,9.48
2023-03-26T22:41:40.221Z,10.00
2023-03-26T22:44:19.909Z,8.65
2023-03-26T22:46:48.129Z,9.30
2023-03-26T22:49:15.648Z,11.20
2023-03-26T22:51:42.847Z,12.63
2023-03-26T22:54:10.324Z,11.98
2023-03-26T22:56:37.471Z,11.50
2023-03-26T22:59:04.849Z,10.73
2023-03-26T23:01:34.865Z,12.57
2023-03-26T23:04:02.378Z,12.80
2023-03-26T23:06:29.503Z,14.88
2023-03-26T23:08:57.302Z,12.20
2023-03-26T23:11:27.026Z,14.25
2023-03-26T23:13:54.525Z,12.98
2023-03-26T23:16:21.927Z,12.77
2023-03-26T23:18:49.386Z,11.48
2023-03-26T23:21:22.679Z,14.23
2023-03-26T23:23:50.473Z,10.30
2023-03-26T23:26:17.568Z,12.23
2023-03-26T23:28:45.212Z,11.75
2023-03-26T23:31:13.090Z,15.30
2023-03-26T23:33:41.851Z,13.88
2023-03-26T23:36:09.305Z,15.10
2023-03-26T23:38:43.994Z,13.63
2023-03-26T23:41:12.520Z,12.60
2023-03-26T23:43:54.331Z,12.88
2023-03-26T23:46:28.429Z,14.68
2023-03-26T23:48:55.896Z,14.48
2023-03-26T23:51:23.452Z,12.60
2023-03-26T23:53:53.221Z,11.98
2023-03-26T23:56:20.402Z,14.25
2023-03-26T23:58:47.784Z,12.82
